sensor_id;sensor_type;location;lat;lon;timestamp;temperature;humidity
61092;DHT22;46975;51.898;11.444;2023-02-02T00:02:03;5.20;99.90
61092;DHT22;46975;51.898;11.444;2023-02-02T00:04:33;5.20;99.90
61092;DHT22;46975;51.898;11.444;2023-02-02T00:07:00;5.10;99.90
61092;DHT22;46975;51.898;11.444;2023-02-02T00:09:30;5.30;99.90
61092;DHT22;46975;51.898;11.444;2023-02-02T00:11:57;5.20;99.90
61092;DHT22;46975;51.898;11.444;2023-02-02T00:14:23;5.20;99.90
61092;DHT22;46975;51.898;11.444;2023-02-02T00:16:53;5.20;99.90
61092;DHT22;46975;51.898;11.444;2023-02-02T00:19:22;5.30;99.90
61092;DHT22;46975;51.898;11.444;2023-02-02T00:21:49;5.30;99.90
61092;DHT22;46975;51.898;11.444;2023-02-02T00:24:15;5.30;99.90
61092;DHT22;46975;51.898;11.444;2023-02-02T00:26:46;5.20;99.90
61092;DHT22;46975;51.898;11.444;2023-02-02T00:29:18;5.10;99.90
61092;DHT22;46975;51.898;11.444;2023-02-02T00:31:44;5.30;99.90
61092;DHT22;46975;51.898;11.444;2023-02-02T00:34:12;5.10;99.90
61092;DHT22;46975;51.898;11.444;2023-02-02T00:36:38;5.10;99.90
61092;DHT22;46975;51.898;11.444;2023-02-02T00:39:04;5.10;99.90
61092;DHT22;46975;51.898;11.444;2023-02-02T00:41:30;5.00;99.90
61092;DHT22;46975;51.898;11.444;2023-02-02T00:43:55;4.90;99.90
61092;DHT22;46975;51.898;11.444;2023-02-02T00:46:40;4.90;99.90
61092;DHT22;46975;51.898;11.444;2023-02-02T00:49:06;4.90;99.90
61092;DHT22;46975;51.898;11.444;2023-02-02T00:51:32;4.90;99.90
61092;DHT22;46975;51.898;11.444;2023-02-02T00:53:57;4.90;99.90
61092;DHT22;46975;51.898;11.444;2023-02-02T00:56:23;4.90;99.90
61092;DHT22;46975;51.898;11.444;2023-02-02T00:58:50;5.00;99.90
61092;DHT22;46975;51.898;11.444;2023-02-02T01:01:17;5.00;99.90
61092;DHT22;46975;51.898;11.444;2023-02-02T01:03:43;5.00;99.90
61092;DHT22;46975;51.898;11.444;2023-02-02T01:06:09;5.00;99.90
61092;DHT22;46975;51.898;11.444;2023-02-02T01:08:34;4.90;99.90
61092;DHT22;46975;51.898;11.444;2023-02-02T01:11:00;5.00;99.90
61092;DHT22;46975;51.898;11.444;2023-02-02T01:13:26;4.90;99.90
61092;DHT22;46975;51.898;11.444;2023-02-02T01:15:56;4.90;99.90
61092;DHT22;46975;51.898;11.444;2023-02-02T01:18:22;5.00;99.90
61092;DHT22;46975;51.898;11.444;2023-02-02T01:20:55;5.00;99.90
61092;DHT22;46975;51.898;11.444;2023-02-02T01:23:20;5.10;99.90
61092;DHT22;46975;51.898;11.444;2023-02-02T01:25:55;5.10;99.90
61092;DHT22;46975;51.898;11.444;2023-02-02T01:28:21;5.00;99.90
61092;DHT22;46975;51.898;11.444;2023-02-02T01:30:47;5.00;99.90
61092;DHT22;46975;51.898;11.444;2023-02-02T01:33:14;5.00;99.90
61092;DHT22;46975;51.898;11.444;2023-02-02T01:35:50;5.00;99.90
61092;DHT22;46975;51.898;11.444;2023-02-02T01:38:16;5.00;99.90
61092;DHT22;46975;51.898;11.444;2023-02-02T01:40:54;4.90;99.90
61092;DHT22;46975;51.898;11.444;2023-02-02T01:43:29;4.90;99.90
61092;DHT22;46975;51.898;11.444;2023-02-02T01:45:56;5.00;99.90
61092;DHT22;46975;51.898;11.444;2023-02-02T01:48:27;4.90;99.90
61092;DHT22;46975;51.898;11.444;2023-02-02T01:50:56;4.90;99.90
61092;DHT22;46975;51.898;11.444;2023-02-02T01:53:23;4.90;99.90
61092;DHT22;46975;51.898;11.444;2023-02-02T01:55:49;4.90;99.90
61092;DHT22;46975;51.898;11.444;2023-02-02T01:58:26;4.90;99.90
61092;DHT22;46975;51.898;11.444;2023-02-02T02:00:54;4.90;99.90
61092;DHT22;46975;51.898;11.444;2023-02-02T02:03:23;5.00;99.90
61092;DHT22;46975;51.898;11.444;2023-02-02T02:10:56;5.20;99.90
61092;DHT22;46975;51.898;11.444;2023-02-02T02:13:24;5.10;99.90
61092;DHT22;46975;51.898;11.444;2023-02-02T02:16:39;5.10;99.90
61092;DHT22;46975;51.898;11.444;2023-02-02T02:22:15;5.00;99.90
61092;DHT22;46975;51.898;11.444;2023-02-02T02:39:44;5.10;99.90
61092;DHT22;46975;51.898;11.444;2023-02-02T02:42:17;5.00;99.90
61092;DHT22;46975;51.898;11.444;2023-02-02T02:44:46;5.00;99.90
61092;DHT22;46975;51.898;11.444;2023-02-02T02:47:12;5.00;99.90
61092;DHT22;46975;51.898;11.444;2023-02-02T02:49:46;5.00;99.90
61092;DHT22;46975;51.898;11.444;2023-02-02T02:52:12;5.20;99.90
61092;DHT22;46975;51.898;11.444;2023-02-02T02:54:47;5.10;99.90
61092;DHT22;46975;51.898;11.444;2023-02-02T03:00:45;5.20;99.90
61092;DHT22;46975;51.898;11.444;2023-02-02T03:05:55;5.20;99.90
61092;DHT22;46975;51.898;11.444;2023-02-02T03:08:37;5.10;99.90
61092;DHT22;46975;51.898;11.444;2023-02-02T03:11:05;5.20;99.90
61092;DHT22;46975;51.898;11.444;2023-02-02T03:13:32;5.10;99.90
61092;DHT22;46975;51.898;11.444;2023-02-02T03:15:58;5.10;99.90
61092;DHT22;46975;51.898;11.444;2023-02-02T03:18:27;5.10;99.90
61092;DHT22;46975;51.898;11.444;2023-02-02T03:20:53;5.00;99.90
61092;DHT22;46975;51.898;11.444;2023-02-02T03:23:19;5.00;99.90
61092;DHT22;46975;51.898;11.444;2023-02-02T03:25:45;5.00;99.90
61092;DHT22;46975;51.898;11.444;2023-02-02T03:28:11;5.10;99.90
61092;DHT22;46975;51.898;11.444;2023-02-02T03:30:39;5.10;99.90
61092;DHT22;46975;51.898;11.444;2023-02-02T03:33:06;5.00;99.90
61092;DHT22;46975;51.898;11.444;2023-02-02T03:35:31;5.00;99.90
61092;DHT22;46975;51.898;11.444;2023-02-02T03:37:57;5.00;99.90
61092;DHT22;46975;51.898;11.444;2023-02-02T03:40:23;5.00;99.90
61092;DHT22;46975;51.898;11.444;2023-02-02T03:42:48;5.00;99.90
61092;DHT22;46975;51.898;11.444;2023-02-02T03:45:14;4.90;99.90
61092;DHT22;46975;51.898;11.444;2023-02-02T03:47:41;5.00;99.90
61092;DHT22;46975;51.898;11.444;2023-02-02T03:50:07;5.00;99.90
61092;DHT22;46975;51.898;11.444;2023-02-02T03:52:33;5.10;99.90
61092;DHT22;46975;51.898;11.444;2023-02-02T03:54:58;5.10;99.90
61092;DHT22;46975;51.898;11.444;2023-02-02T03:57:24;5.10;99.90
61092;DHT22;46975;51.898;11.444;2023-02-02T03:59:50;5.00;99.90
61092;DHT22;46975;51.898;11.444;2023-02-02T04:02:15;5.00;99.90
61092;DHT22;46975;51.898;11.444;2023-02-02T04:04:42;4.90;99.90
61092;DHT22;46975;51.898;11.444;2023-02-02T04:07:07;4.80;99.90
61092;DHT22;46975;51.898;11.444;2023-02-02T04:09:33;4.80;99.90
61092;DHT22;46975;51.898;11.444;2023-02-02T04:11:59;4.70;99.90
61092;DHT22;46975;51.898;11.444;2023-02-02T04:14:24;4.70;99.90
61092;DHT22;46975;51.898;11.444;2023-02-02T04:16:50;4.80;99.90
61092;DHT22;46975;51.898;11.444;2023-02-02T04:19:16;4.80;99.90
61092;DHT22;46975;51.898;11.444;2023-02-02T04:21:41;4.90;99.90
61092;DHT22;46975;51.898;11.444;2023-02-02T04:24:10;4.80;99.90
61092;DHT22;46975;51.898;11.444;2023-02-02T04:26:36;4.80;99.90
61092;DHT22;46975;51.898;11.444;2023-02-02T04:29:01;4.90;99.90
61092;DHT22;46975;51.898;11.444;2023-02-02T04:31:27;4.90;99.90
61092;DHT22;46975;51.898;11.444;2023-02-02T04:33:54;4.80;99.90
61092;DHT22;46975;51.898;11.444;2023-02-02T04:36:20;4.80;99.90
61092;DHT22;46975;51.898;11.444;2023-02-02T04:38:48;4.80;99.90
61092;DHT22;46975;51.898;11.444;2023-02-02T04:41:14;4.80;99.90
61092;DHT22;46975;51.898;11.444;2023-02-02T04:43:40;4.80;99.90
61092;DHT22;46975;51.898;11.444;2023-02-02T04:46:06;4.80;99.90
61092;DHT22;46975;51.898;11.444;2023-02-02T04:48:32;4.90;99.90
61092;DHT22;46975;51.898;11.444;2023-02-02T04:51:03;5.10;99.90
61092;DHT22;46975;51.898;11.444;2023-02-02T04:53:29;5.00;99.90
61092;DHT22;46975;51.898;11.444;2023-02-02T04:55:55;5.00;99.90
61092;DHT22;46975;51.898;11.444;2023-02-02T04:58:21;5.00;99.90
61092;DHT22;46975;51.898;11.444;2023-02-02T05:00:46;5.00;99.90
61092;DHT22;46975;51.898;11.444;2023-02-02T05:03:12;5.00;99.90
61092;DHT22;46975;51.898;11.444;2023-02-02T05:05:37;5.00;99.90
61092;DHT22;46975;51.898;11.444;2023-02-02T05:08:03;5.00;99.90
61092;DHT22;46975;51.898;11.444;2023-02-02T05:10:29;5.00;99.90
61092;DHT22;46975;51.898;11.444;2023-02-02T05:12:55;5.00;99.90
61092;DHT22;46975;51.898;11.444;2023-02-02T05:15:21;4.90;99.90
61092;DHT22;46975;51.898;11.444;2023-02-02T05:17:48;4.90;99.90
61092;DHT22;46975;51.898;11.444;2023-02-02T05:20:13;4.90;99.90
61092;DHT22;46975;51.898;11.444;2023-02-02T05:22:39;4.90;99.90
61092;DHT22;46975;51.898;11.444;2023-02-02T05:25:06;4.90;99.90
61092;DHT22;46975;51.898;11.444;2023-02-02T05:27:32;4.90;99.90
61092;DHT22;46975;51.898;11.444;2023-02-02T05:29:58;4.90;99.90
61092;DHT22;46975;51.898;11.444;2023-02-02T05:32:24;4.90;99.90
61092;DHT22;46975;51.898;11.444;2023-02-02T05:34:49;5.00;99.90
61092;DHT22;46975;51.898;11.444;2023-02-02T05:37:15;4.90;99.90
61092;DHT22;46975;51.898;11.444;2023-02-02T05:39:41;4.90;99.90
61092;DHT22;46975;51.898;11.444;2023-02-02T05:42:06;5.00;99.90
61092;DHT22;46975;51.898;11.444;2023-02-02T05:44:32;5.00;99.90
61092;DHT22;46975;51.898;11.444;2023-02-02T05:46:58;5.00;99.90
61092;DHT22;46975;51.898;11.444;2023-02-02T05:49:23;5.00;99.90
61092;DHT22;46975;51.898;11.444;2023-02-02T05:51:53;5.00;99.90
61092;DHT22;46975;51.898;11.444;2023-02-02T05:54:19;5.00;99.90
61092;DHT22;46975;51.898;11.444;2023-02-02T05:56:46;5.10;99.90
61092;DHT22;46975;51.898;11.444;2023-02-02T05:59:12;5.20;99.90
61092;DHT22;46975;51.898;11.444;2023-02-02T06:01:39;5.10;99.90
61092;DHT22;46975;51.898;11.444;2023-02-02T06:04:04;5.20;99.90
61092;DHT22;46975;51.898;11.444;2023-02-02T06:06:30;5.20;99.90
61092;DHT22;46975;51.898;11.444;2023-02-02T06:08:55;5.10;99.90
61092;DHT22;46975;51.898;11.444;2023-02-02T06:11:21;5.00;99.90
61092;DHT22;46975;51.898;11.444;2023-02-02T06:13:47;5.00;99.90
61092;DHT22;46975;51.898;11.444;2023-02-02T06:16:12;5.10;99.90
61092;DHT22;46975;51.898;11.444;2023-02-02T06:18:38;5.10;99.90
61092;DHT22;46975;51.898;11.444;2023-02-02T06:21:05;5.10;99.90
61092;DHT22;46975;51.898;11.444;2023-02-02T06:23:31;5.20;99.90
61092;DHT22;46975;51.898;11.444;2023-02-02T06:25:57;5.20;99.90
61092;DHT22;46975;51.898;11.444;2023-02-02T06:28:23;5.10;99.90
61092;DHT22;46975;51.898;11.444;2023-02-02T06:30:48;5.00;99.90
61092;DHT22;46975;51.898;11.444;2023-02-02T06:33:14;4.90;99.90
61092;DHT22;46975;51.898;11.444;2023-02-02T06:35:40;4.80;99.90
61092;DHT22;46975;51.898;11.444;2023-02-02T06:38:05;4.80;99.90
61092;DHT22;46975;51.898;11.444;2023-02-02T06:40:31;4.80;99.90
61092;DHT22;46975;51.898;11.444;2023-02-02T06:42:58;4.90;99.90
61092;DHT22;46975;51.898;11.444;2023-02-02T06:45:25;4.80;99.90
61092;DHT22;46975;51.898;11.444;2023-02-02T06:47:51;4.90;99.90
61092;DHT22;46975;51.898;11.444;2023-02-02T06:50:17;5.00;99.90
61092;DHT22;46975;51.898;11.444;2023-02-02T06:52:49;5.00;99.90
61092;DHT22;46975;51.898;11.444;2023-02-02T06:55:15;5.10;99.90
61092;DHT22;46975;51.898;11.444;2023-02-02T06:57:41;5.10;99.90
61092;DHT22;46975;51.898;11.444;2023-02-02T07:00:07;5.10;99.90
61092;DHT22;46975;51.898;11.444;2023-02-02T07:02:33;5.00;99.90
61092;DHT22;46975;51.898;11.444;2023-02-02T07:05:00;5.00;99.90
61092;DHT22;46975;51.898;11.444;2023-02-02T07:07:26;5.00;99.90
61092;DHT22;46975;51.898;11.444;2023-02-02T07:09:52;5.00;99.90
61092;DHT22;46975;51.898;11.444;2023-02-02T07:12:18;4.90;99.90
61092;DHT22;46975;51.898;11.444;2023-02-02T07:14:44;4.90;99.90
61092;DHT22;46975;51.898;11.444;2023-02-02T07:17:10;4.90;99.90
61092;DHT22;46975;51.898;11.444;2023-02-02T07:19:36;4.90;99.90
61092;DHT22;46975;51.898;11.444;2023-02-02T07:22:02;5.00;99.90
61092;DHT22;46975;51.898;11.444;2023-02-02T07:24:27;4.90;99.90
61092;DHT22;46975;51.898;11.444;2023-02-02T07:26:53;4.90;99.90
61092;DHT22;46975;51.898;11.444;2023-02-02T07:29:19;4.90;99.90
61092;DHT22;46975;51.898;11.444;2023-02-02T07:31:45;4.90;99.90
61092;DHT22;46975;51.898;11.444;2023-02-02T07:34:10;4.90;99.90
61092;DHT22;46975;51.898;11.444;2023-02-02T07:36:36;4.90;99.90
61092;DHT22;46975;51.898;11.444;2023-02-02T07:39:03;5.00;99.90
61092;DHT22;46975;51.898;11.444;2023-02-02T07:41:29;5.00;99.90
61092;DHT22;46975;51.898;11.444;2023-02-02T07:43:55;5.00;99.90
61092;DHT22;46975;51.898;11.444;2023-02-02T07:46:21;5.10;99.90
61092;DHT22;46975;51.898;11.444;2023-02-02T07:48:47;5.10;99.90
61092;DHT22;46975;51.898;11.444;2023-02-02T07:51:16;5.20;99.90
61092;DHT22;46975;51.898;11.444;2023-02-02T07:53:47;5.10;99.90
61092;DHT22;46975;51.898;11.444;2023-02-02T07:58:43;5.20;99.90
61092;DHT22;46975;51.898;11.444;2023-02-02T08:01:10;5.20;99.90
61092;DHT22;46975;51.898;11.444;2023-02-02T08:03:36;5.20;99.90
61092;DHT22;46975;51.898;11.444;2023-02-02T08:06:09;5.20;99.90
61092;DHT22;46975;51.898;11.444;2023-02-02T08:08:35;5.30;99.90
61092;DHT22;46975;51.898;11.444;2023-02-02T08:11:01;5.30;99.90
61092;DHT22;46975;51.898;11.444;2023-02-02T08:13:27;5.20;99.90
61092;DHT22;46975;51.898;11.444;2023-02-02T08:15:52;5.30;99.90
61092;DHT22;46975;51.898;11.444;2023-02-02T08:18:18;5.40;99.90
61092;DHT22;46975;51.898;11.444;2023-02-02T08:20:43;5.40;99.90
61092;DHT22;46975;51.898;11.444;2023-02-02T08:23:09;5.50;99.90
61092;DHT22;46975;51.898;11.444;2023-02-02T08:25:40;5.50;99.90
61092;DHT22;46975;51.898;11.444;2023-02-02T08:28:06;5.50;99.90
61092;DHT22;46975;51.898;11.444;2023-02-02T08:30:33;5.60;99.90
61092;DHT22;46975;51.898;11.444;2023-02-02T08:32:58;5.60;99.90
61092;DHT22;46975;51.898;11.444;2023-02-02T08:35:24;5.60;99.90
61092;DHT22;46975;51.898;11.444;2023-02-02T08:37:49;5.70;99.90
61092;DHT22;46975;51.898;11.444;2023-02-02T08:40:15;5.80;99.90
61092;DHT22;46975;51.898;11.444;2023-02-02T08:42:41;5.80;99.90
61092;DHT22;46975;51.898;11.444;2023-02-02T08:45:07;5.90;99.90
61092;DHT22;46975;51.898;11.444;2023-02-02T08:47:33;5.90;99.90
61092;DHT22;46975;51.898;11.444;2023-02-02T08:49:59;5.90;99.90
61092;DHT22;46975;51.898;11.444;2023-02-02T08:52:24;5.90;99.90
61092;DHT22;46975;51.898;11.444;2023-02-02T08:54:50;5.90;99.90
61092;DHT22;46975;51.898;11.444;2023-02-02T08:57:15;5.80;99.90
61092;DHT22;46975;51.898;11.444;2023-02-02T08:59:41;5.80;99.90
61092;DHT22;46975;51.898;11.444;2023-02-02T09:02:09;5.70;99.90
61092;DHT22;46975;51.898;11.444;2023-02-02T09:04:35;5.80;99.90
61092;DHT22;46975;51.898;11.444;2023-02-02T09:07:00;5.80;99.90
61092;DHT22;46975;51.898;11.444;2023-02-02T09:09:26;5.80;99.90
61092;DHT22;46975;51.898;11.444;2023-02-02T09:11:52;5.80;99.90
61092;DHT22;46975;51.898;11.444;2023-02-02T09:14:17;5.90;99.90
61092;DHT22;46975;51.898;11.444;2023-02-02T09:16:43;6.00;99.90
61092;DHT22;46975;51.898;11.444;2023-02-02T09:19:09;6.10;99.90
61092;DHT22;46975;51.898;11.444;2023-02-02T09:21:35;6.10;99.90
61092;DHT22;46975;51.898;11.444;2023-02-02T09:24:05;6.10;99.90
61092;DHT22;46975;51.898;11.444;2023-02-02T09:26:31;6.00;99.90
61092;DHT22;46975;51.898;11.444;2023-02-02T09:29:02;6.10;99.90
61092;DHT22;46975;51.898;11.444;2023-02-02T09:31:32;6.20;99.90
61092;DHT22;46975;51.898;11.444;2023-02-02T09:34:02;6.20;99.90
61092;DHT22;46975;51.898;11.444;2023-02-02T09:36:29;6.30;99.90
61092;DHT22;46975;51.898;11.444;2023-02-02T09:38:54;6.40;99.90
61092;DHT22;46975;51.898;11.444;2023-02-02T09:50:44;6.70;99.90
61092;DHT22;46975;51.898;11.444;2023-02-02T09:53:22;6.80;99.90
61092;DHT22;46975;51.898;11.444;2023-02-02T09:55:54;6.80;99.90
61092;DHT22;46975;51.898;11.444;2023-02-02T10:01:26;7.00;99.90
61092;DHT22;46975;51.898;11.444;2023-02-02T10:04:04;6.90;99.90
61092;DHT22;46975;51.898;11.444;2023-02-02T10:09:28;6.80;99.90
61092;DHT22;46975;51.898;11.444;2023-02-02T10:12:14;6.80;99.90
61092;DHT22;46975;51.898;11.444;2023-02-02T10:14:59;6.80;99.90
61092;DHT22;46975;51.898;11.444;2023-02-02T10:28:38;6.80;99.90
61092;DHT22;46975;51.898;11.444;2023-02-02T10:31:16;6.80;99.90
61092;DHT22;46975;51.898;11.444;2023-02-02T10:34:06;7.00;99.90
61092;DHT22;46975;51.898;11.444;2023-02-02T10:36:46;7.20;99.90
61092;DHT22;46975;51.898;11.444;2023-02-02T10:42:01;7.40;99.90
61092;DHT22;46975;51.898;11.444;2023-02-02T10:44:50;7.10;99.90
61092;DHT22;46975;51.898;11.444;2023-02-02T10:47:37;7.00;99.90
61092;DHT22;46975;51.898;11.444;2023-02-02T10:52:41;6.50;99.90
61092;DHT22;46975;51.898;11.444;2023-02-02T10:55:52;6.50;99.90
61092;DHT22;46975;51.898;11.444;2023-02-02T10:58:24;6.60;99.90
61092;DHT22;46975;51.898;11.444;2023-02-02T11:00:54;6.60;99.90
61092;DHT22;46975;51.898;11.444;2023-02-02T11:03:22;6.70;99.90
61092;DHT22;46975;51.898;11.444;2023-02-02T11:05:49;6.80;99.90
61092;DHT22;46975;51.898;11.444;2023-02-02T11:08:35;6.90;99.90
61092;DHT22;46975;51.898;11.444;2023-02-02T11:11:18;7.00;99.90
61092;DHT22;46975;51.898;11.444;2023-02-02T11:14:01;7.00;99.90
61092;DHT22;46975;51.898;11.444;2023-02-02T11:16:30;7.10;99.90
61092;DHT22;46975;51.898;11.444;2023-02-02T11:18:56;7.30;99.90
61092;DHT22;46975;51.898;11.444;2023-02-02T11:21:31;7.30;99.90
61092;DHT22;46975;51.898;11.444;2023-02-02T11:24:29;7.30;99.90
61092;DHT22;46975;51.898;11.444;2023-02-02T11:27:01;7.40;99.90
61092;DHT22;46975;51.898;11.444;2023-02-02T11:29:33;7.60;99.90
61092;DHT22;46975;51.898;11.444;2023-02-02T11:35:14;7.40;99.90
61092;DHT22;46975;51.898;11.444;2023-02-02T11:38:06;7.40;99.90
61092;DHT22;46975;51.898;11.444;2023-02-02T11:40:41;7.50;99.90
61092;DHT22;46975;51.898;11.444;2023-02-02T11:43:18;7.40;99.90
61092;DHT22;46975;51.898;11.444;2023-02-02T11:45:50;7.40;99.90
61092;DHT22;46975;51.898;11.444;2023-02-02T11:48:19;7.30;99.90
61092;DHT22;46975;51.898;11.444;2023-02-02T11:50:51;7.30;99.90
61092;DHT22;46975;51.898;11.444;2023-02-02T11:53:59;7.20;99.90
61092;DHT22;46975;51.898;11.444;2023-02-02T11:56:23;7.10;99.90
61092;DHT22;46975;51.898;11.444;2023-02-02T11:58:55;7.00;99.90
61092;DHT22;46975;51.898;11.444;2023-02-02T12:01:36;7.00;99.90
61092;DHT22;46975;51.898;11.444;2023-02-02T12:06:42;7.00;99.90
61092;DHT22;46975;51.898;11.444;2023-02-02T12:09:13;7.00;99.90
61092;DHT22;46975;51.898;11.444;2023-02-02T12:25:40;7.10;99.90
61092;DHT22;46975;51.898;11.444;2023-02-02T12:28:46;7.10;99.90
61092;DHT22;46975;51.898;11.444;2023-02-02T12:42:22;7.60;99.90
61092;DHT22;46975;51.898;11.444;2023-02-02T12:48:13;7.40;99.90
61092;DHT22;46975;51.898;11.444;2023-02-02T12:51:10;7.30;99.90
61092;DHT22;46975;51.898;11.444;2023-02-02T12:56:39;7.20;99.90
61092;DHT22;46975;51.898;11.444;2023-02-02T13:07:42;7.10;99.90
61092;DHT22;46975;51.898;11.444;2023-02-02T13:10:15;7.10;99.90
61092;DHT22;46975;51.898;11.444;2023-02-02T13:12:56;7.10;99.90
61092;DHT22;46975;51.898;11.444;2023-02-02T13:15:33;7.10;99.90
61092;DHT22;46975;51.898;11.444;2023-02-02T13:18:03;7.20;99.90
61092;DHT22;46975;51.898;11.444;2023-02-02T13:22:59;7.30;99.90
61092;DHT22;46975;51.898;11.444;2023-02-02T13:25:34;7.20;99.90
61092;DHT22;46975;51.898;11.444;2023-02-02T13:28:03;7.20;99.90
61092;DHT22;46975;51.898;11.444;2023-02-02T13:30:35;7.00;99.90
61092;DHT22;46975;51.898;11.444;2023-02-02T13:33:24;7.00;99.90
61092;DHT22;46975;51.898;11.444;2023-02-02T13:35:58;6.90;99.90
61092;DHT22;46975;51.898;11.444;2023-02-02T13:38:27;7.00;99.90
61092;DHT22;46975;51.898;11.444;2023-02-02T13:40:56;6.80;99.90
61092;DHT22;46975;51.898;11.444;2023-02-02T13:43:32;6.80;99.90
61092;DHT22;46975;51.898;11.444;2023-02-02T13:51:54;7.20;99.90
61092;DHT22;46975;51.898;11.444;2023-02-02T13:55:01;7.20;99.90
61092;DHT22;46975;51.898;11.444;2023-02-02T13:57:45;7.20;99.90
61092;DHT22;46975;51.898;11.444;2023-02-02T14:00:30;7.00;99.90
61092;DHT22;46975;51.898;11.444;2023-02-02T14:03:01;7.00;99.90
61092;DHT22;46975;51.898;11.444;2023-02-02T14:05:39;7.00;99.90
61092;DHT22;46975;51.898;11.444;2023-02-02T14:08:15;6.80;99.90
61092;DHT22;46975;51.898;11.444;2023-02-02T14:10:44;6.70;99.90
61092;DHT22;46975;51.898;11.444;2023-02-02T14:16:43;6.50;99.90
61092;DHT22;46975;51.898;11.444;2023-02-02T14:20:02;6.50;99.90
61092;DHT22;46975;51.898;11.444;2023-02-02T14:37:45;6.40;99.90
61092;DHT22;46975;51.898;11.444;2023-02-02T14:40:25;6.30;99.90
61092;DHT22;46975;51.898;11.444;2023-02-02T14:49:05;6.00;99.90
61092;DHT22;46975;51.898;11.444;2023-02-02T14:51:30;5.90;99.90
61092;DHT22;46975;51.898;11.444;2023-02-02T14:53:59;6.00;99.90
61092;DHT22;46975;51.898;11.444;2023-02-02T14:59:18;6.00;99.90
61092;DHT22;46975;51.898;11.444;2023-02-02T15:02:20;6.00;99.90
61092;DHT22;46975;51.898;11.444;2023-02-02T15:04:47;6.00;99.90
61092;DHT22;46975;51.898;11.444;2023-02-02T15:09:52;6.00;99.90
61092;DHT22;46975;51.898;11.444;2023-02-02T15:12:43;6.10;99.90
61092;DHT22;46975;51.898;11.444;2023-02-02T15:22:53;5.80;99.90
61092;DHT22;46975;51.898;11.444;2023-02-02T15:30:56;5.70;99.90
61092;DHT22;46975;51.898;11.444;2023-02-02T15:33:32;5.70;99.90
61092;DHT22;46975;51.898;11.444;2023-02-02T15:36:03;5.60;99.90
61092;DHT22;46975;51.898;11.444;2023-02-02T15:38:33;5.40;99.90
61092;DHT22;46975;51.898;11.444;2023-02-02T15:41:06;5.30;99.90
61092;DHT22;46975;51.898;11.444;2023-02-02T15:43:37;5.30;99.90
61092;DHT22;46975;51.898;11.444;2023-02-02T15:46:06;5.20;99.90
61092;DHT22;46975;51.898;11.444;2023-02-02T15:48:35;5.20;99.90
61092;DHT22;46975;51.898;11.444;2023-02-02T15:51:06;5.10;99.90
61092;DHT22;46975;51.898;11.444;2023-02-02T15:58:50;5.10;99.90
61092;DHT22;46975;51.898;11.444;2023-02-02T16:01:21;5.10;99.90
61092;DHT22;46975;51.898;11.444;2023-02-02T16:06:20;5.20;99.90
61092;DHT22;46975;51.898;11.444;2023-02-02T16:08:46;5.10;99.90
61092;DHT22;46975;51.898;11.444;2023-02-02T16:11:21;5.10;99.90
61092;DHT22;46975;51.898;11.444;2023-02-02T16:14:02;5.00;99.90
61092;DHT22;46975;51.898;11.444;2023-02-02T16:16:32;4.90;99.90
61092;DHT22;46975;51.898;11.444;2023-02-02T16:21:34;5.00;99.90
61092;DHT22;46975;51.898;11.444;2023-02-02T16:24:03;5.00;99.90
61092;DHT22;46975;51.898;11.444;2023-02-02T16:26:30;5.00;99.90
61092;DHT22;46975;51.898;11.444;2023-02-02T16:28:57;4.90;99.90
61092;DHT22;46975;51.898;11.444;2023-02-02T16:31:23;4.90;99.90
61092;DHT22;46975;51.898;11.444;2023-02-02T16:33:49;4.90;99.90
61092;DHT22;46975;51.898;11.444;2023-02-02T16:36:26;4.90;99.90
61092;DHT22;46975;51.898;11.444;2023-02-02T16:38:57;4.90;99.90
61092;DHT22;46975;51.898;11.444;2023-02-02T16:41:30;5.00;99.90
61092;DHT22;46975;51.898;11.444;2023-02-02T16:47:02;5.10;99.90
61092;DHT22;46975;51.898;11.444;2023-02-02T16:49:29;5.10;99.90
61092;DHT22;46975;51.898;11.444;2023-02-02T16:54:41;5.10;99.90
61092;DHT22;46975;51.898;11.444;2023-02-02T16:57:20;5.10;99.90
61092;DHT22;46975;51.898;11.444;2023-02-02T16:59:52;5.20;99.90
61092;DHT22;46975;51.898;11.444;2023-02-02T17:02:28;5.20;99.90
61092;DHT22;46975;51.898;11.444;2023-02-02T17:05:22;5.20;99.90
61092;DHT22;46975;51.898;11.444;2023-02-02T17:07:51;5.20;99.90
61092;DHT22;46975;51.898;11.444;2023-02-02T17:10:23;5.20;99.90
61092;DHT22;46975;51.898;11.444;2023-02-02T17:12:49;5.20;99.90
61092;DHT22;46975;51.898;11.444;2023-02-02T17:17:44;5.10;99.90
61092;DHT22;46975;51.898;11.444;2023-02-02T17:20:12;5.00;99.90
61092;DHT22;46975;51.898;11.444;2023-02-02T17:22:41;5.00;99.90
61092;DHT22;46975;51.898;11.444;2023-02-02T17:25:20;4.90;99.90
61092;DHT22;46975;51.898;11.444;2023-02-02T17:27:48;4.90;99.90
61092;DHT22;46975;51.898;11.444;2023-02-02T17:30:16;4.70;99.90
61092;DHT22;46975;51.898;11.444;2023-02-02T17:32:42;4.60;99.90
61092;DHT22;46975;51.898;11.444;2023-02-02T17:35:15;4.50;99.90
61092;DHT22;46975;51.898;11.444;2023-02-02T17:37:41;4.40;99.90
61092;DHT22;46975;51.898;11.444;2023-02-02T17:40:15;4.40;99.90
61092;DHT22;46975;51.898;11.444;2023-02-02T17:42:42;4.40;99.90
61092;DHT22;46975;51.898;11.444;2023-02-02T17:45:18;4.40;99.90
61092;DHT22;46975;51.898;11.444;2023-02-02T17:47:44;4.30;99.90
61092;DHT22;46975;51.898;11.444;2023-02-02T17:50:11;4.30;99.90
61092;DHT22;46975;51.898;11.444;2023-02-02T17:52:37;4.20;99.90
61092;DHT22;46975;51.898;11.444;2023-02-02T17:55:13;4.30;99.90
61092;DHT22;46975;51.898;11.444;2023-02-02T17:57:41;4.30;99.90
61092;DHT22;46975;51.898;11.444;2023-02-02T18:00:07;4.40;99.90
61092;DHT22;46975;51.898;11.444;2023-02-02T18:02:33;4.40;99.90
61092;DHT22;46975;51.898;11.444;2023-02-02T18:05:00;4.50;99.90
61092;DHT22;46975;51.898;11.444;2023-02-02T18:07:26;4.40;99.90
61092;DHT22;46975;51.898;11.444;2023-02-02T18:09:51;4.50;99.90
61092;DHT22;46975;51.898;11.444;2023-02-02T18:12:17;4.50;99.90
61092;DHT22;46975;51.898;11.444;2023-02-02T18:14:42;4.40;99.90
61092;DHT22;46975;51.898;11.444;2023-02-02T18:17:08;4.40;99.90
61092;DHT22;46975;51.898;11.444;2023-02-02T18:19:34;4.40;99.90
61092;DHT22;46975;51.898;11.444;2023-02-02T18:21:59;4.50;99.90
61092;DHT22;46975;51.898;11.444;2023-02-02T18:24:25;4.50;99.90
61092;DHT22;46975;51.898;11.444;2023-02-02T18:26:51;4.60;99.90
61092;DHT22;46975;51.898;11.444;2023-02-02T18:29:16;4.70;99.90
61092;DHT22;46975;51.898;11.444;2023-02-02T18:31:42;4.80;99.90
61092;DHT22;46975;51.898;11.444;2023-02-02T18:34:07;4.80;99.90
61092;DHT22;46975;51.898;11.444;2023-02-02T18:36:33;4.80;99.90
61092;DHT22;46975;51.898;11.444;2023-02-02T18:39:00;4.80;99.90
61092;DHT22;46975;51.898;11.444;2023-02-02T18:41:26;4.80;99.90
61092;DHT22;46975;51.898;11.444;2023-02-02T18:43:55;4.80;99.90
61092;DHT22;46975;51.898;11.444;2023-02-02T18:46:20;4.90;99.90